createdAt,value
2017-07-08T00:01:25.412Z,18.27
2017-07-08T00:03:52.130Z,21.23
2017-07-08T00:06:18.801Z,19.62
2017-07-08T00:08:45.489Z,19.12
2017-07-08T00:11:12.251Z,19.92
2017-07-08T00:13:38.978Z,19.27
2017-07-08T00:16:05.643Z,18.35
2017-07-08T00:18:32.359Z,16.40
2017-07-08T00:20:59.098Z,17.40
2017-07-08T00:23:25.748Z,14.65
2017-07-08T00:25:52.495Z,14.18
2017-07-08T00:28:19.173Z,15.25
2017-07-08T00:30:45.824Z,14.55
2017-07-08T00:33:12.477Z,15.65
2017-07-08T00:35:39.171Z,12.77
2017-07-08T00:38:05.872Z,13.95
2017-07-08T00:40:32.611Z,14.60
2017-07-08T00:42:59.376Z,14.77
2017-07-08T00:45:26.028Z,15.85
2017-07-08T00:47:52.696Z,19.77
2017-07-08T00:50:19.595Z,20.77
2017-07-08T00:52:46.332Z,22.95
2017-07-08T00:55:13.060Z,23.42
2017-07-08T00:57:39.736Z,25.58
2017-07-08T01:00:06.390Z,26.40
2017-07-08T01:02:33.044Z,24.65
2017-07-08T01:04:59.823Z,24.00
2017-07-08T01:07:26.471Z,20.83
2017-07-08T01:09:53.124Z,16.95
2017-07-08T01:12:19.946Z,15.52
2017-07-08T01:14:46.609Z,15.43
2017-07-08T01:17:13.324Z,14.95
2017-07-08T01:19:40.087Z,17.20
2017-07-08T01:22:06.750Z,15.65
2017-07-08T01:24:33.448Z,16.15
2017-07-08T01:27:00.135Z,17.05
2017-07-08T01:29:26.847Z,17.20
2017-07-08T01:31:53.531Z,17.30
2017-07-08T01:34:20.312Z,18.42
2017-07-08T01:36:47.058Z,15.75
2017-07-08T01:39:13.810Z,16.90
2017-07-08T01:41:40.510Z,18.95
2017-07-08T01:44:07.175Z,16.83
2017-07-08T01:46:33.921Z,18.40
2017-07-08T01:49:00.674Z,17.45
2017-07-08T01:51:27.346Z,16.42
2017-07-08T01:53:54.013Z,17.92
2017-07-08T01:56:20.718Z,18.23
2017-07-08T01:58:47.382Z,18.17
2017-07-08T02:01:14.062Z,20.48
2017-07-08T02:03:40.819Z,17.60
2017-07-08T02:06:07.558Z,17.65
2017-07-08T02:08:34.211Z,17.73
2017-07-08T02:11:01.741Z,17.10
2017-07-08T02:13:28.395Z,20.65
2017-07-08T02:15:55.045Z,26.87
2017-07-08T02:18:21.864Z,25.27
2017-07-08T02:20:48.513Z,25.35
2017-07-08T02:23:15.164Z,27.13
2017-07-08T02:25:41.893Z,23.10
2017-07-08T02:28:08.553Z,21.17
2017-07-08T02:30:35.275Z,27.25
2017-07-08T02:33:02.023Z,26.10
2017-07-08T02:35:28.748Z,23.23
2017-07-08T02:37:55.511Z,21.48
2017-07-08T02:40:22.199Z,25.35
2017-07-08T02:42:48.862Z,30.60
2017-07-08T02:45:15.627Z,30.35
2017-07-08T02:47:42.356Z,33.95
2017-07-08T02:50:09.005Z,24.23
2017-07-08T02:52:35.751Z,25.65
2017-07-08T02:55:02.489Z,29.75
2017-07-08T02:57:29.224Z,27.52
2017-07-08T02:59:55.956Z,27.27
2017-07-08T03:02:22.647Z,22.60
2017-07-08T03:04:49.337Z,33.58
2017-07-08T03:07:15.988Z,29.83
2017-07-08T03:09:42.690Z,31.30
2017-07-08T03:12:09.340Z,32.70
2017-07-08T03:14:36.115Z,26.37
2017-07-08T03:17:02.811Z,22.92
2017-07-08T03:19:29.467Z,19.92
2017-07-08T03:21:56.239Z,18.25
2017-07-08T03:24:22.928Z,18.50
2017-07-08T03:26:49.593Z,17.87
2017-07-08T03:29:16.246Z,18.75
2017-07-08T03:31:42.985Z,19.35
2017-07-08T03:34:09.634Z,19.45
2017-07-08T03:36:36.304Z,17.65
2017-07-08T03:39:03.000Z,18.30
2017-07-08T03:41:29.738Z,18.77
2017-07-08T03:43:56.494Z,20.45
2017-07-08T03:46:23.229Z,18.25
2017-07-08T03:48:49.876Z,25.48
2017-07-08T03:51:16.542Z,23.15
2017-07-08T03:53:43.243Z,30.77
2017-07-08T03:56:09.996Z,33.05
2017-07-08T03:58:36.732Z,31.50
2017-07-08T04:01:03.487Z,42.35
2017-07-08T04:03:30.238Z,41.70
2017-07-08T04:05:56.912Z,40.58
2017-07-08T04:08:23.706Z,26.23
2017-07-08T04:10:50.370Z,24.27
2017-07-08T04:13:17.083Z,22.13
2017-07-08T04:15:43.825Z,21.15
2017-07-08T04:18:10.475Z,21.45
2017-07-08T04:20:37.129Z,23.20
2017-07-08T04:23:03.858Z,25.90
2017-07-08T04:25:30.508Z,26.52
2017-07-08T04:27:57.239Z,27.13
2017-07-08T04:30:23.975Z,29.63
2017-07-08T04:32:50.707Z,26.52
2017-07-08T04:35:17.445Z,25.30
2017-07-08T04:37:44.185Z,22.55
2017-07-08T04:40:10.836Z,25.02
2017-07-08T04:42:37.560Z,22.95
2017-07-08T04:45:04.305Z,23.10
2017-07-08T04:47:30.943Z,21.48
2017-07-08T04:49:57.597Z,21.08
2017-07-08T04:52:24.324Z,19.30
2017-07-08T04:54:51.083Z,20.90
2017-07-08T04:57:17.737Z,21.60
2017-07-08T04:59:44.450Z,24.50
2017-07-08T05:02:11.208Z,22.55
2017-07-08T05:04:37.882Z,23.40
2017-07-08T05:07:04.671Z,18.50
2017-07-08T05:09:31.433Z,19.92
2017-07-08T05:11:58.085Z,21.27
2017-07-08T05:14:24.810Z,19.33
2017-07-08T05:16:51.551Z,20.42
2017-07-08T05:19:18.224Z,20.55
2017-07-08T05:21:45.017Z,19.05
2017-07-08T05:24:11.757Z,22.30
2017-07-08T05:26:38.405Z,19.73
2017-07-08T05:29:05.155Z,21.65
2017-07-08T05:31:31.888Z,18.33
2017-07-08T05:33:58.620Z,17.92
2017-07-08T05:36:25.378Z,16.75
2017-07-08T05:38:52.125Z,17.83
2017-07-08T05:41:18.859Z,19.12
2017-07-08T05:43:45.602Z,19.98
2017-07-08T05:46:12.342Z,18.17
2017-07-08T05:48:40.067Z,16.17
2017-07-08T05:51:06.748Z,14.35
2017-07-08T05:53:33.414Z,19.33
2017-07-08T05:56:00.064Z,14.68
2017-07-08T05:58:26.852Z,17.33
2017-07-08T06:00:53.601Z,14.52
2017-07-08T06:03:20.253Z,14.50
2017-07-08T06:05:46.943Z,13.00
2017-07-08T06:08:13.595Z,13.88
2017-07-08T06:10:40.243Z,12.40
2017-07-08T06:13:07.015Z,14.75
2017-07-08T06:15:33.743Z,13.88
2017-07-08T06:18:00.407Z,11.02
2017-07-08T06:20:27.228Z,14.18
2017-07-08T06:22:53.967Z,13.55
2017-07-08T06:25:20.634Z,12.07
2017-07-08T06:27:47.363Z,19.08
2017-07-08T06:30:14.039Z,13.27
2017-07-08T06:32:40.725Z,12.40
2017-07-08T06:35:07.484Z,16.25
2017-07-08T06:37:34.223Z,12.90
2017-07-08T06:40:00.953Z,11.85
2017-07-08T06:42:27.655Z,13.80
2017-07-08T06:44:54.308Z,11.10
2017-07-08T06:47:20.970Z,13.98
2017-07-08T06:49:47.641Z,10.38
2017-07-08T06:52:15.044Z,11.50
2017-07-08T06:54:41.712Z,11.55
2017-07-08T06:57:08.613Z,13.60
2017-07-08T06:59:35.288Z,15.65
2017-07-08T07:02:02.042Z,10.85
2017-07-08T07:04:28.786Z,10.52
2017-07-08T07:06:55.451Z,10.90
2017-07-08T07:09:22.115Z,11.40
2017-07-08T07:11:48.808Z,11.43
2017-07-08T07:14:15.527Z,12.50
2017-07-08T07:16:42.173Z,10.10
2017-07-08T07:19:08.858Z,11.48
2017-07-08T07:21:35.523Z,10.80
2017-07-08T07:24:02.208Z,10.15
2017-07-08T07:26:28.949Z,10.48
2017-07-08T07:28:55.687Z,11.73
2017-07-08T07:31:22.421Z,9.77
2017-07-08T07:33:49.099Z,9.63
2017-07-08T07:36:15.773Z,10.40
2017-07-08T07:38:42.421Z,9.30
2017-07-08T07:41:09.357Z,10.18
2017-07-08T07:43:36.030Z,14.30
2017-07-08T07:46:02.684Z,9.32
2017-07-08T07:48:29.373Z,11.18
2017-07-08T07:50:56.022Z,12.95
2017-07-08T07:53:22.785Z,12.35
2017-07-08T07:55:49.540Z,10.25
2017-07-08T07:58:16.189Z,9.85
2017-07-08T08:00:42.850Z,9.77
2017-07-08T08:03:09.537Z,10.30
2017-07-08T08:05:36.276Z,9.68
2017-07-08T08:08:02.942Z,12.90
2017-07-08T08:10:29.668Z,8.95
2017-07-08T08:12:56.319Z,11.82
2017-07-08T08:15:22.975Z,8.18
2017-07-08T08:17:49.670Z,10.20
2017-07-08T08:20:16.438Z,9.18
2017-07-08T08:22:43.183Z,9.52
2017-07-08T08:25:09.919Z,9.05
2017-07-08T08:27:36.649Z,8.10
2017-07-08T08:30:03.390Z,9.13
2017-07-08T08:32:30.057Z,7.93
2017-07-08T08:34:56.709Z,10.13
2017-07-08T08:37:23.358Z,7.22
2017-07-08T08:39:50.043Z,6.25
2017-07-08T08:42:16.784Z,7.12
2017-07-08T08:44:43.447Z,6.97
2017-07-08T08:47:10.170Z,6.70
2017-07-08T08:49:36.909Z,6.82
2017-07-08T08:52:03.567Z,7.20
2017-07-08T08:54:30.262Z,5.10
2017-07-08T08:56:56.927Z,5.43
2017-07-08T08:59:23.599Z,7.32
2017-07-08T09:01:50.309Z,7.97
2017-07-08T09:04:16.963Z,4.70
2017-07-08T09:06:43.634Z,4.80
2017-07-08T09:09:10.327Z,4.55
2017-07-08T09:11:36.986Z,5.35
2017-07-08T09:14:03.713Z,8.50
2017-07-08T09:16:30.458Z,4.40
2017-07-08T09:18:57.113Z,4.87
2017-07-08T09:21:23.842Z,7.47
2017-07-08T09:23:50.576Z,4.07
2017-07-08T09:26:17.330Z,3.83
2017-07-08T09:28:44.072Z,4.90
2017-07-08T09:31:10.802Z,4.67
2017-07-08T09:33:37.449Z,6.03
2017-07-08T09:36:04.112Z,4.40
2017-07-08T09:38:30.839Z,6.33
2017-07-08T09:40:57.502Z,4.67
2017-07-08T09:43:24.196Z,4.85
2017-07-08T09:45:50.873Z,4.05
2017-07-08T09:48:17.544Z,4.97
2017-07-08T09:50:44.204Z,6.47
2017-07-08T09:53:10.878Z,5.87
2017-07-08T09:55:37.611Z,4.95
2017-07-08T09:58:04.283Z,6.95
2017-07-08T10:00:30.975Z,4.70
2017-07-08T10:02:57.628Z,6.78
2017-07-08T10:05:24.275Z,4.03
2017-07-08T10:07:50.967Z,5.40
2017-07-08T10:10:17.636Z,7.75
2017-07-08T10:12:44.289Z,6.97
2017-07-08T10:15:10.960Z,4.45
2017-07-08T10:17:37.675Z,5.80
2017-07-08T10:20:04.419Z,12.57
2017-07-08T10:22:31.091Z,3.50
2017-07-08T10:24:57.776Z,7.30
2017-07-08T10:27:24.440Z,3.87
2017-07-08T10:29:51.179Z,5.20
2017-07-08T10:32:17.900Z,5.82
2017-07-08T10:34:44.552Z,8.15
2017-07-08T10:37:11.365Z,4.53
2017-07-08T10:39:37.976Z,3.10
2017-07-08T10:42:04.683Z,9.03
2017-07-08T10:44:31.357Z,7.03
2017-07-08T10:46:58.050Z,5.47
2017-07-08T10:49:24.719Z,3.20
2017-07-08T10:51:51.425Z,3.50
2017-07-08T10:54:18.083Z,4.87
2017-07-08T10:56:44.734Z,3.73
2017-07-08T10:59:11.446Z,4.20
2017-07-08T11:01:38.185Z,2.43
2017-07-08T11:04:04.942Z,5.60
2017-07-08T11:06:31.627Z,3.17
2017-07-08T11:08:58.272Z,7.50
2017-07-08T11:11:24.935Z,2.13
2017-07-08T11:13:51.948Z,2.33
2017-07-08T11:16:18.633Z,3.10
2017-07-08T11:18:45.372Z,4.27
2017-07-08T11:21:12.041Z,3.17
2017-07-08T11:23:38.774Z,6.53
2017-07-08T11:26:05.419Z,2.70
2017-07-08T11:28:32.099Z,3.13
2017-07-08T11:30:58.767Z,4.90
2017-07-08T11:33:25.446Z,16.23
2017-07-08T11:35:52.144Z,7.30
2017-07-08T11:38:18.792Z,6.90
2017-07-08T11:40:45.432Z,4.80
2017-07-08T11:43:12.115Z,3.43
2017-07-08T11:45:38.761Z,3.37
2017-07-08T11:48:05.458Z,3.57
2017-07-08T11:50:32.124Z,5.07
2017-07-08T11:52:58.764Z,3.43
2017-07-08T11:55:25.526Z,3.80
2017-07-08T11:57:52.217Z,3.57
2017-07-08T12:00:18.878Z,3.37
2017-07-08T12:02:45.614Z,7.90
2017-07-08T12:05:12.335Z,2.83
2017-07-08T12:07:38.972Z,4.40
2017-07-08T12:10:05.627Z,3.20
2017-07-08T12:12:32.297Z,5.60
2017-07-08T12:14:58.940Z,3.37
2017-07-08T12:17:25.598Z,6.23
2017-07-08T12:19:52.283Z,4.70
2017-07-08T12:22:19.016Z,5.00
2017-07-08T12:24:45.657Z,6.03
2017-07-08T12:27:12.331Z,2.10
2017-07-08T12:29:39.040Z,8.27
2017-07-08T12:32:05.782Z,1.80
2017-07-08T12:34:32.463Z,4.10
2017-07-08T12:36:59.124Z,2.13
2017-07-08T12:39:25.796Z,2.07
2017-07-08T12:41:52.459Z,3.23
2017-07-08T12:44:19.189Z,2.07
2017-07-08T12:46:45.916Z,1.73
2017-07-08T12:49:12.580Z,2.97
2017-07-08T12:51:39.292Z,1.17
2017-07-08T12:54:06.036Z,2.20
2017-07-08T12:56:32.735Z,1.87
2017-07-08T12:58:59.420Z,1.27
2017-07-08T13:01:26.175Z,6.10
2017-07-08T13:03:52.956Z,3.03
2017-07-08T13:06:19.596Z,1.87
2017-07-08T13:08:46.251Z,3.40
2017-07-08T13:11:12.947Z,1.80
2017-07-08T13:13:40.585Z,3.40
2017-07-08T13:16:07.237Z,3.03
2017-07-08T13:18:33.940Z,2.63
2017-07-08T13:21:00.586Z,4.53
2017-07-08T13:23:27.244Z,2.60
2017-07-08T13:25:53.911Z,1.87
2017-07-08T13:28:20.610Z,3.80
2017-07-08T13:30:50.288Z,3.20
2017-07-08T13:33:17.461Z,3.73
2017-07-08T13:35:44.437Z,4.37
2017-07-08T13:38:11.132Z,2.83
2017-07-08T13:40:53.080Z,3.27
2017-07-08T13:43:24.723Z,3.00
2017-07-08T13:45:51.578Z,5.20
2017-07-08T13:48:18.323Z,4.50
2017-07-08T13:50:44.986Z,17.03
2017-07-08T13:53:11.693Z,4.03
2017-07-08T13:55:38.349Z,4.13
2017-07-08T13:58:05.011Z,2.77
2017-07-08T14:00:31.681Z,1.70
2017-07-08T14:02:58.357Z,1.93
2017-07-08T14:05:25.003Z,3.87
2017-07-08T14:07:51.734Z,6.50
2017-07-08T14:10:18.388Z,4.13
2017-07-08T14:12:45.202Z,7.33
2017-07-08T14:15:11.847Z,4.90
2017-07-08T14:17:38.598Z,2.80
2017-07-08T14:20:05.241Z,2.60
2017-07-08T14:22:31.982Z,2.80
2017-07-08T14:24:58.727Z,1.73
2017-07-08T14:27:25.472Z,2.17
2017-07-08T14:29:52.187Z,1.87
2017-07-08T14:32:19.252Z,5.60
2017-07-08T14:34:45.951Z,3.23
2017-07-08T14:37:12.747Z,3.13
2017-07-08T14:39:39.488Z,4.00
2017-07-08T14:42:06.146Z,1.77
2017-07-08T14:44:32.856Z,5.17
2017-07-08T14:46:59.511Z,5.37
2017-07-08T14:49:26.231Z,2.80
2017-07-08T14:51:52.983Z,8.97
2017-07-08T14:54:19.707Z,4.90
2017-07-08T14:56:46.820Z,5.90
2017-07-08T14:59:13.493Z,3.50
2017-07-08T15:01:40.151Z,2.40
2017-07-08T15:04:06.895Z,2.87
2017-07-08T15:06:33.582Z,2.40
2017-07-08T15:09:00.276Z,2.00
2017-07-08T15:11:27.000Z,2.03
2017-07-08T15:13:53.680Z,1.87
2017-07-08T15:16:20.345Z,1.40
2017-07-08T15:18:47.016Z,2.13
2017-07-08T15:21:13.680Z,2.83
2017-07-08T15:23:40.330Z,5.00
2017-07-08T15:26:07.059Z,2.07
2017-07-08T15:28:33.742Z,2.20
2017-07-08T15:31:00.394Z,1.83
2017-07-08T15:33:27.041Z,2.27
2017-07-08T15:35:53.814Z,1.97
2017-07-08T15:38:20.554Z,1.90
2017-07-08T15:40:47.196Z,2.47
2017-07-08T15:43:13.871Z,1.70
2017-07-08T15:45:40.560Z,2.40
2017-07-08T15:48:07.204Z,1.50
2017-07-08T15:50:33.886Z,1.47
2017-07-08T15:53:00.537Z,6.97
2017-07-08T15:55:27.239Z,2.50
2017-07-08T15:57:53.905Z,2.60
2017-07-08T16:00:20.548Z,1.70
2017-07-08T16:02:47.203Z,2.03
2017-07-08T16:05:13.885Z,3.23
2017-07-08T16:07:40.529Z,1.97
2017-07-08T16:10:07.234Z,2.03
2017-07-08T16:12:33.874Z,3.00
2017-07-08T16:15:00.535Z,2.57
2017-07-08T16:17:27.191Z,3.10
2017-07-08T16:19:53.935Z,2.43
2017-07-08T16:22:20.581Z,1.90
2017-07-08T16:24:47.234Z,1.83
2017-07-08T16:27:13.932Z,3.07
2017-07-08T16:29:40.598Z,2.97
2017-07-08T16:32:07.317Z,2.33
2017-07-08T16:34:33.998Z,3.07
2017-07-08T16:37:00.715Z,2.13
2017-07-08T16:39:27.371Z,3.27
2017-07-08T16:41:54.063Z,8.73
2017-07-08T16:44:20.727Z,3.13
2017-07-08T16:46:47.390Z,3.60
2017-07-08T16:49:14.060Z,2.20
2017-07-08T16:51:40.710Z,2.33
2017-07-08T16:54:07.357Z,1.93
2017-07-08T16:56:34.044Z,2.37
2017-07-08T16:59:00.767Z,7.23
2017-07-08T17:01:27.515Z,2.43
2017-07-08T17:03:54.259Z,1.70
2017-07-08T17:06:20.902Z,2.00
2017-07-08T17:08:47.622Z,4.30
2017-07-08T17:11:14.319Z,2.00
2017-07-08T17:13:41.006Z,2.23
2017-07-08T17:16:07.650Z,2.90
2017-07-08T17:18:34.317Z,4.20
2017-07-08T17:21:01.024Z,2.40
2017-07-08T17:23:27.774Z,2.23
2017-07-08T17:25:54.519Z,4.27
2017-07-08T17:28:21.240Z,2.60
2017-07-08T17:30:47.883Z,2.73
2017-07-08T17:33:14.620Z,3.00
2017-07-08T17:35:41.279Z,3.00
2017-07-08T17:38:08.022Z,2.63
2017-07-08T17:40:34.693Z,3.23
2017-07-08T17:43:01.332Z,2.70
2017-07-08T17:45:28.038Z,3.00
2017-07-08T17:47:54.714Z,4.67
2017-07-08T17:50:21.371Z,3.07
2017-07-08T17:52:48.036Z,2.60
2017-07-08T17:55:14.786Z,2.80
2017-07-08T17:57:41.545Z,2.20
2017-07-08T18:00:08.204Z,9.90
2017-07-08T18:02:34.880Z,2.73
2017-07-08T18:05:01.534Z,3.03
2017-07-08T18:07:28.196Z,6.13
2017-07-08T18:09:54.868Z,3.47
2017-07-08T18:12:21.517Z,2.77
2017-07-08T18:14:48.215Z,3.17
2017-07-08T18:17:14.901Z,5.60
2017-07-08T18:19:41.592Z,4.60
2017-07-08T18:22:08.339Z,2.60
2017-07-08T18:24:35.083Z,4.83
2017-07-08T18:27:01.731Z,5.60
2017-07-08T18:29:28.386Z,2.97
2017-07-08T18:31:55.061Z,3.63
2017-07-08T18:34:21.722Z,2.90
2017-07-08T18:36:48.376Z,4.70
2017-07-08T18:39:15.050Z,4.43
2017-07-08T18:41:41.709Z,4.70
2017-07-08T18:44:08.373Z,3.90
2017-07-08T18:46:35.055Z,3.40
2017-07-08T18:49:01.761Z,3.72
2017-07-08T18:51:28.420Z,3.70
2017-07-08T18:53:55.453Z,6.53
2017-07-08T18:56:22.206Z,3.70
2017-07-08T18:58:48.937Z,6.75
2017-07-08T19:01:15.643Z,5.62
2017-07-08T19:03:42.330Z,3.08
2017-07-08T19:06:08.998Z,3.22
2017-07-08T19:08:35.702Z,2.42
2017-07-08T19:11:02.367Z,3.35
2017-07-08T19:13:29.015Z,4.22
2017-07-08T19:15:55.695Z,4.05
2017-07-08T19:18:22.401Z,4.10
2017-07-08T19:20:49.039Z,3.37
2017-07-08T19:23:15.750Z,3.50
2017-07-08T19:25:43.111Z,3.37
2017-07-08T19:28:09.783Z,6.40
2017-07-08T19:30:36.470Z,4.03
2017-07-08T19:33:03.226Z,3.90
2017-07-08T19:35:29.963Z,4.75
2017-07-08T19:37:56.697Z,3.95
2017-07-08T19:40:23.359Z,9.00
2017-07-08T19:42:50.035Z,5.22
2017-07-08T19:45:16.833Z,4.85
2017-07-08T19:47:43.485Z,4.32
2017-07-08T19:50:10.196Z,4.85
2017-07-08T19:52:36.945Z,11.18
2017-07-08T19:55:03.679Z,5.03
2017-07-08T19:57:30.424Z,5.35
2017-07-08T19:59:57.171Z,7.68
2017-07-08T20:02:23.813Z,6.87
2017-07-08T20:04:50.563Z,4.80
2017-07-08T20:07:17.299Z,5.10
2017-07-08T20:09:43.943Z,5.15
2017-07-08T20:12:10.584Z,4.57
2017-07-08T20:14:37.319Z,9.18
2017-07-08T20:17:04.049Z,14.93
2017-07-08T20:19:30.714Z,6.28
2017-07-08T20:21:57.406Z,8.23
2017-07-08T20:24:24.054Z,9.98
2017-07-08T20:26:50.804Z,12.00
2017-07-08T20:29:17.567Z,9.40
2017-07-08T20:31:44.216Z,16.37
2017-07-08T20:34:10.944Z,12.88
2017-07-08T20:36:37.627Z,8.63
2017-07-08T20:39:04.273Z,7.45
2017-07-08T20:41:30.935Z,6.10
2017-07-08T20:43:57.616Z,6.30
2017-07-08T20:46:24.256Z,9.02
2017-07-08T20:48:50.983Z,6.50
2017-07-08T20:51:17.648Z,5.97
2017-07-08T20:53:44.367Z,6.07
2017-07-08T20:56:11.027Z,6.12
2017-07-08T20:58:37.715Z,5.22
2017-07-08T21:01:04.376Z,6.20
2017-07-08T21:03:31.119Z,5.93
2017-07-08T21:05:57.793Z,5.78
2017-07-08T21:08:24.496Z,8.18
2017-07-08T21:10:51.155Z,6.00
2017-07-08T21:13:17.869Z,5.57
2017-07-08T21:15:44.614Z,6.62
2017-07-08T21:18:11.359Z,5.25
2017-07-08T21:20:38.024Z,5.95
2017-07-08T21:23:04.667Z,7.85
2017-07-08T21:25:31.413Z,6.75
2017-07-08T21:27:58.122Z,4.60
2017-07-08T21:30:24.871Z,6.43
2017-07-08T21:32:51.523Z,6.30
2017-07-08T21:35:18.200Z,5.45
2017-07-08T21:37:44.851Z,9.23
2017-07-08T21:40:11.493Z,6.78
2017-07-08T21:42:38.263Z,5.60
2017-07-08T21:45:05.011Z,5.78
2017-07-08T21:47:31.759Z,5.53
2017-07-08T21:49:58.491Z,4.90
2017-07-08T21:52:25.140Z,5.93
2017-07-08T21:54:51.795Z,9.48
2017-07-08T21:57:18.466Z,4.37
2017-07-08T21:59:45.123Z,5.95
2017-07-08T22:02:11.765Z,5.37
2017-07-08T22:04:38.514Z,5.40
2017-07-08T22:07:05.190Z,5.65
2017-07-08T22:09:31.907Z,6.20
2017-07-08T22:11:58.660Z,6.55
2017-07-08T22:14:25.395Z,13.38
2017-07-08T22:16:52.120Z,5.87
2017-07-08T22:19:18.792Z,5.37
2017-07-08T22:21:45.613Z,6.90
2017-07-08T22:24:12.370Z,7.62
2017-07-08T22:26:39.084Z,7.93
2017-07-08T22:29:05.730Z,8.13
2017-07-08T22:31:32.479Z,7.53
2017-07-08T22:33:59.231Z,7.53
2017-07-08T22:36:25.887Z,7.30
2017-07-08T22:38:52.547Z,8.63
2017-07-08T22:41:19.233Z,7.65
2017-07-08T22:43:45.886Z,7.18
2017-07-08T22:46:12.607Z,7.87
2017-07-08T22:48:39.286Z,7.75
2017-07-08T22:51:05.946Z,7.40
2017-07-08T22:53:32.597Z,7.20
2017-07-08T22:55:59.280Z,7.68
2017-07-08T22:58:26.014Z,12.13
2017-07-08T23:00:52.675Z,8.05
2017-07-08T23:03:19.347Z,7.35
2017-07-08T23:05:46.052Z,8.70
2017-07-08T23:08:12.719Z,8.95
2017-07-08T23:10:39.381Z,8.52
2017-07-08T23:13:06.066Z,8.45
2017-07-08T23:15:32.811Z,8.52
2017-07-08T23:17:59.555Z,8.45
2017-07-08T23:20:26.289Z,7.25
2017-07-08T23:22:52.928Z,8.90
2017-07-08T23:25:19.667Z,7.72
2017-07-08T23:27:46.407Z,9.63
2017-07-08T23:30:13.063Z,8.05
2017-07-08T23:32:39.745Z,8.15
2017-07-08T23:35:06.533Z,10.43
2017-07-08T23:37:33.274Z,8.40
2017-07-08T23:39:59.981Z,7.95
2017-07-08T23:42:26.638Z,8.68
2017-07-08T23:44:53.403Z,9.35
2017-07-08T23:47:20.072Z,9.20
2017-07-08T23:49:46.760Z,9.57
2017-07-08T23:52:13.424Z,10.80
2017-07-08T23:54:40.159Z,9.15
2017-07-08T23:57:06.891Z,8.10
2017-07-08T23:59:33.624Z,12.85
